sensor_id;sensor_type;location;lat;lon;timestamp;pressure;altitude;pressure_sealevel;temperature;humidity
56176;BME280;63065;51.082;17.016;2022-09-03T00:01:22;100595.65;;;18.95;34.07
56176;BME280;63065;51.082;17.016;2022-09-03T00:03:48;100596.72;;;19.44;33.52
56176;BME280;63065;51.082;17.016;2022-09-03T00:06:12;100596.35;;;19.25;34.54
56176;BME280;63065;51.082;17.016;2022-09-03T00:08:42;100596.16;;;19.34;34.74
56176;BME280;63065;51.082;17.016;2022-09-03T00:11:06;100597.46;;;19.18;34.96
56176;BME280;63065;51.082;17.016;2022-09-03T00:13:31;100590.36;;;19.50;34.20
56176;BME280;63065;51.082;17.016;2022-09-03T00:15:54;100583.56;;;19.19;34.26
56176;BME280;63065;51.082;17.016;2022-09-03T00:18:21;100582.56;;;19.40;34.75
56176;BME280;63065;51.082;17.016;2022-09-03T00:20:50;100578.78;;;19.39;34.67
56176;BME280;63065;51.082;17.016;2022-09-03T00:23:13;100575.54;;;18.94;33.69
56176;BME280;63065;51.082;17.016;2022-09-03T00:25:41;100576.08;;;19.28;34.55
56176;BME280;63065;51.082;17.016;2022-09-03T00:28:05;100579.07;;;19.11;34.00
56176;BME280;63065;51.082;17.016;2022-09-03T00:30:28;100580.11;;;18.71;34.21
56176;BME280;63065;51.082;17.016;2022-09-03T00:32:56;100582.55;;;18.65;35.06
56176;BME280;63065;51.082;17.016;2022-09-03T00:35:22;100581.22;;;18.99;33.53
56176;BME280;63065;51.082;17.016;2022-09-03T00:37:44;100580.53;;;19.02;33.94
56176;BME280;63065;51.082;17.016;2022-09-03T00:40:17;100579.49;;;18.72;34.96
56176;BME280;63065;51.082;17.016;2022-09-03T00:42:44;100576.00;;;18.51;34.51
56176;BME280;63065;51.082;17.016;2022-09-03T00:45:10;100577.40;;;18.81;35.30
56176;BME280;63065;51.082;17.016;2022-09-03T00:47:35;100578.79;;;18.95;35.34
56176;BME280;63065;51.082;17.016;2022-09-03T00:50:02;100580.63;;;18.67;34.85
56176;BME280;63065;51.082;17.016;2022-09-03T00:52:27;100584.28;;;18.77;35.71
56176;BME280;63065;51.082;17.016;2022-09-03T00:54:52;100582.20;;;18.68;35.94
56176;BME280;63065;51.082;17.016;2022-09-03T00:57:21;100580.99;;;18.67;35.11
56176;BME280;63065;51.082;17.016;2022-09-03T00:59:41;100584.07;;;18.45;35.71
56176;BME280;63065;51.082;17.016;2022-09-03T01:04:36;100584.97;;;18.65;35.78
56176;BME280;63065;51.082;17.016;2022-09-03T01:06:58;100586.23;;;18.53;36.24
56176;BME280;63065;51.082;17.016;2022-09-03T01:09:29;100586.70;;;18.64;35.58
56176;BME280;63065;51.082;17.016;2022-09-03T01:11:53;100583.82;;;18.96;35.62
56176;BME280;63065;51.082;17.016;2022-09-03T01:14:17;100582.77;;;18.63;35.11
56176;BME280;63065;51.082;17.016;2022-09-03T01:16:42;100585.91;;;18.76;35.52
56176;BME280;63065;51.082;17.016;2022-09-03T01:19:10;100584.60;;;18.66;35.98
56176;BME280;63065;51.082;17.016;2022-09-03T01:21:44;100585.44;;;18.14;35.75
56176;BME280;63065;51.082;17.016;2022-09-03T01:26:28;100584.58;;;18.70;35.52
56176;BME280;63065;51.082;17.016;2022-09-03T01:28:52;100584.83;;;18.35;36.11
56176;BME280;63065;51.082;17.016;2022-09-03T01:31:21;100584.67;;;18.60;34.75
56176;BME280;63065;51.082;17.016;2022-09-03T01:33:39;100582.25;;;18.41;35.91
56176;BME280;63065;51.082;17.016;2022-09-03T01:36:09;100576.20;;;18.28;35.20
56176;BME280;63065;51.082;17.016;2022-09-03T01:38:33;100577.37;;;18.20;36.11
56176;BME280;63065;51.082;17.016;2022-09-03T01:41:00;100581.97;;;17.98;35.14
56176;BME280;63065;51.082;17.016;2022-09-03T01:43:31;100577.69;;;18.20;35.97
56176;BME280;63065;51.082;17.016;2022-09-03T01:45:52;100577.95;;;18.54;36.31
56176;BME280;63065;51.082;17.016;2022-09-03T01:48:22;100580.71;;;18.37;35.90
56176;BME280;63065;51.082;17.016;2022-09-03T01:50:43;100576.10;;;18.31;35.88
56176;BME280;63065;51.082;17.016;2022-09-03T01:53:09;100573.95;;;18.04;35.75
56176;BME280;63065;51.082;17.016;2022-09-03T01:55:32;100576.60;;;17.99;36.06
56176;BME280;63065;51.082;17.016;2022-09-03T01:57:56;100577.12;;;17.84;36.17
56176;BME280;63065;51.082;17.016;2022-09-03T02:00:19;100572.95;;;17.82;36.34
56176;BME280;63065;51.082;17.016;2022-09-03T02:02:47;100570.53;;;18.03;36.80
56176;BME280;63065;51.082;17.016;2022-09-03T02:05:13;100570.50;;;17.77;36.28
56176;BME280;63065;51.082;17.016;2022-09-03T02:07:39;100574.38;;;17.43;35.98
56176;BME280;63065;51.082;17.016;2022-09-03T02:10:06;100578.84;;;17.86;35.45
56176;BME280;63065;51.082;17.016;2022-09-03T02:12:29;100576.32;;;17.76;36.24
56176;BME280;63065;51.082;17.016;2022-09-03T02:14:54;100578.86;;;17.71;36.31
56176;BME280;63065;51.082;17.016;2022-09-03T02:17:20;100576.71;;;17.89;37.09
56176;BME280;63065;51.082;17.016;2022-09-03T02:19:45;100576.85;;;17.23;36.43
56176;BME280;63065;51.082;17.016;2022-09-03T02:22:11;100576.27;;;17.62;36.46
56176;BME280;63065;51.082;17.016;2022-09-03T02:24:36;100577.91;;;17.49;36.48
56176;BME280;63065;51.082;17.016;2022-09-03T02:27:02;100577.59;;;17.58;37.05
56176;BME280;63065;51.082;17.016;2022-09-03T02:29:28;100578.57;;;17.61;36.91
56176;BME280;63065;51.082;17.016;2022-09-03T02:31:53;100575.82;;;17.46;36.72
56176;BME280;63065;51.082;17.016;2022-09-03T02:34:19;100574.20;;;17.47;36.99
56176;BME280;63065;51.082;17.016;2022-09-03T02:36:46;100570.78;;;17.39;36.48
56176;BME280;63065;51.082;17.016;2022-09-03T02:39:12;100574.68;;;17.33;37.05
56176;BME280;63065;51.082;17.016;2022-09-03T02:41:37;100574.72;;;17.57;37.10
56176;BME280;63065;51.082;17.016;2022-09-03T02:44:07;100580.09;;;17.37;36.87
56176;BME280;63065;51.082;17.016;2022-09-03T02:46:33;100583.93;;;17.44;36.63
56176;BME280;63065;51.082;17.016;2022-09-03T02:48:54;100581.43;;;17.60;36.89
56176;BME280;63065;51.082;17.016;2022-09-03T02:51:19;100577.71;;;17.19;36.75
56176;BME280;63065;51.082;17.016;2022-09-03T02:53:45;100578.63;;;17.56;37.09
56176;BME280;63065;51.082;17.016;2022-09-03T02:56:11;100581.00;;;17.34;37.35
56176;BME280;63065;51.082;17.016;2022-09-03T02:58:37;100581.02;;;17.40;36.96
56176;BME280;63065;51.082;17.016;2022-09-03T03:01:03;100581.21;;;17.29;37.20
56176;BME280;63065;51.082;17.016;2022-09-03T03:03:30;100582.83;;;17.11;37.60
56176;BME280;63065;51.082;17.016;2022-09-03T03:05:56;100586.53;;;17.36;37.00
56176;BME280;63065;51.082;17.016;2022-09-03T03:08:22;100583.36;;;16.97;36.87
56176;BME280;63065;51.082;17.016;2022-09-03T03:10:46;100582.94;;;16.94;36.90
56176;BME280;63065;51.082;17.016;2022-09-03T03:13:12;100580.44;;;17.12;37.35
56176;BME280;63065;51.082;17.016;2022-09-03T03:15:37;100578.56;;;16.82;37.49
56176;BME280;63065;51.082;17.016;2022-09-03T03:18:03;100580.34;;;16.99;37.73
56176;BME280;63065;51.082;17.016;2022-09-03T03:20:29;100581.41;;;17.10;36.93
56176;BME280;63065;51.082;17.016;2022-09-03T03:22:55;100579.54;;;16.67;37.37
56176;BME280;63065;51.082;17.016;2022-09-03T03:25:20;100580.12;;;17.19;37.27
56176;BME280;63065;51.082;17.016;2022-09-03T03:27:46;100581.71;;;17.03;37.52
56176;BME280;63065;51.082;17.016;2022-09-03T03:30:12;100578.95;;;16.74;37.44
56176;BME280;63065;51.082;17.016;2022-09-03T03:32:37;100573.29;;;17.24;38.00
56176;BME280;63065;51.082;17.016;2022-09-03T03:35:05;100573.10;;;17.01;38.12
56176;BME280;63065;51.082;17.016;2022-09-03T03:37:29;100571.66;;;16.74;37.61
56176;BME280;63065;51.082;17.016;2022-09-03T03:39:54;100576.61;;;16.68;37.74
56176;BME280;63065;51.082;17.016;2022-09-03T03:42:20;100579.19;;;16.82;38.10
56176;BME280;63065;51.082;17.016;2022-09-03T03:44:45;100581.50;;;17.03;38.23
56176;BME280;63065;51.082;17.016;2022-09-03T03:47:12;100579.51;;;16.74;37.81
56176;BME280;63065;51.082;17.016;2022-09-03T03:49:37;100580.25;;;16.66;37.88
56176;BME280;63065;51.082;17.016;2022-09-03T03:52:03;100580.04;;;17.03;37.81
56176;BME280;63065;51.082;17.016;2022-09-03T03:54:29;100578.51;;;16.79;37.89
56176;BME280;63065;51.082;17.016;2022-09-03T03:56:54;100580.51;;;16.51;38.09
56176;BME280;63065;51.082;17.016;2022-09-03T03:59:20;100583.71;;;16.75;38.44
56176;BME280;63065;51.082;17.016;2022-09-03T04:01:45;100584.08;;;16.69;37.85
56176;BME280;63065;51.082;17.016;2022-09-03T04:04:11;100586.31;;;16.69;37.93
56176;BME280;63065;51.082;17.016;2022-09-03T04:06:37;100584.87;;;16.64;37.16
56176;BME280;63065;51.082;17.016;2022-09-03T04:09:03;100585.16;;;16.42;38.02
56176;BME280;63065;51.082;17.016;2022-09-03T04:11:28;100584.75;;;16.67;38.24
56176;BME280;63065;51.082;17.016;2022-09-03T04:13:54;100584.67;;;16.68;37.95
56176;BME280;63065;51.082;17.016;2022-09-03T04:16:21;100587.30;;;16.64;37.89
56176;BME280;63065;51.082;17.016;2022-09-03T04:18:47;100586.09;;;16.58;38.27
56176;BME280;63065;51.082;17.016;2022-09-03T04:21:13;100584.62;;;16.68;37.88
56176;BME280;63065;51.082;17.016;2022-09-03T04:23:39;100584.69;;;16.61;37.76
56176;BME280;63065;51.082;17.016;2022-09-03T04:26:04;100587.63;;;16.51;37.79
56176;BME280;63065;51.082;17.016;2022-09-03T04:28:29;100588.24;;;16.64;38.12
56176;BME280;63065;51.082;17.016;2022-09-03T04:31:00;100587.43;;;16.56;38.28
56176;BME280;63065;51.082;17.016;2022-09-03T04:33:24;100589.20;;;16.56;38.14
56176;BME280;63065;51.082;17.016;2022-09-03T04:35:46;100591.71;;;16.56;38.22
56176;BME280;63065;51.082;17.016;2022-09-03T04:38:12;100596.74;;;16.63;38.89
56176;BME280;63065;51.082;17.016;2022-09-03T04:40:38;100598.62;;;16.42;38.84
56176;BME280;63065;51.082;17.016;2022-09-03T04:43:04;100601.27;;;16.38;38.07
56176;BME280;63065;51.082;17.016;2022-09-03T04:45:30;100602.26;;;16.45;38.37
56176;BME280;63065;51.082;17.016;2022-09-03T04:47:56;100605.37;;;16.48;37.96
56176;BME280;63065;51.082;17.016;2022-09-03T04:50:21;100601.60;;;16.46;38.44
56176;BME280;63065;51.082;17.016;2022-09-03T04:52:46;100601.59;;;16.55;38.54
56176;BME280;63065;51.082;17.016;2022-09-03T04:55:12;100600.12;;;16.45;38.29
56176;BME280;63065;51.082;17.016;2022-09-03T04:57:37;100599.46;;;16.56;38.56
56176;BME280;63065;51.082;17.016;2022-09-03T05:00:04;100596.63;;;16.50;38.77
56176;BME280;63065;51.082;17.016;2022-09-03T05:02:28;100599.68;;;16.56;38.31
56176;BME280;63065;51.082;17.016;2022-09-03T05:04:54;100603.19;;;16.45;38.57
56176;BME280;63065;51.082;17.016;2022-09-03T05:07:20;100612.15;;;16.70;39.20
56176;BME280;63065;51.082;17.016;2022-09-03T05:09:45;100620.96;;;16.38;38.50
56176;BME280;63065;51.082;17.016;2022-09-03T05:12:11;100621.18;;;17.13;38.79
56176;BME280;63065;51.082;17.016;2022-09-03T05:14:37;100619.56;;;16.70;39.27
56176;BME280;63065;51.082;17.016;2022-09-03T05:17:02;100623.74;;;16.91;38.50
56176;BME280;63065;51.082;17.016;2022-09-03T05:19:27;100620.57;;;16.89;38.27
56176;BME280;63065;51.082;17.016;2022-09-03T05:21:52;100626.34;;;17.12;38.37
56176;BME280;63065;51.082;17.016;2022-09-03T05:24:18;100624.18;;;16.93;38.03
56176;BME280;63065;51.082;17.016;2022-09-03T05:26:44;100627.21;;;16.96;38.23
56176;BME280;63065;51.082;17.016;2022-09-03T05:29:09;100627.18;;;16.64;37.75
56176;BME280;63065;51.082;17.016;2022-09-03T05:31:36;100625.91;;;17.23;38.03
56176;BME280;63065;51.082;17.016;2022-09-03T05:34:02;100627.84;;;16.60;37.86
56176;BME280;63065;51.082;17.016;2022-09-03T05:36:27;100626.34;;;17.07;38.18
56176;BME280;63065;51.082;17.016;2022-09-03T05:38:51;100627.30;;;17.10;38.19
56176;BME280;63065;51.082;17.016;2022-09-03T05:41:17;100625.30;;;17.36;37.80
56176;BME280;63065;51.082;17.016;2022-09-03T05:43:43;100620.64;;;16.89;38.06
56176;BME280;63065;51.082;17.016;2022-09-03T05:46:10;100621.09;;;17.44;37.78
56176;BME280;63065;51.082;17.016;2022-09-03T05:48:35;100619.05;;;16.98;37.91
56176;BME280;63065;51.082;17.016;2022-09-03T05:51:00;100619.92;;;17.17;36.72
56176;BME280;63065;51.082;17.016;2022-09-03T05:53:25;100615.62;;;17.29;37.80
56176;BME280;63065;51.082;17.016;2022-09-03T05:55:55;100620.34;;;16.97;37.00
56176;BME280;63065;51.082;17.016;2022-09-03T05:58:16;100622.05;;;17.19;37.30
56176;BME280;63065;51.082;17.016;2022-09-03T06:00:42;100622.89;;;17.24;37.33
56176;BME280;63065;51.082;17.016;2022-09-03T06:03:08;100626.24;;;16.82;37.56
56176;BME280;63065;51.082;17.016;2022-09-03T06:05:34;100626.12;;;16.94;37.72
56176;BME280;63065;51.082;17.016;2022-09-03T06:07:59;100624.54;;;16.98;37.83
56176;BME280;63065;51.082;17.016;2022-09-03T06:10:25;100622.92;;;17.07;38.14
56176;BME280;63065;51.082;17.016;2022-09-03T06:12:51;100621.09;;;17.17;38.05
56176;BME280;63065;51.082;17.016;2022-09-03T06:15:17;100620.45;;;17.38;36.94
56176;BME280;63065;51.082;17.016;2022-09-03T06:17:43;100623.00;;;17.34;37.32
56176;BME280;63065;51.082;17.016;2022-09-03T06:20:09;100621.18;;;16.73;37.98
56176;BME280;63065;51.082;17.016;2022-09-03T06:22:34;100626.09;;;17.26;37.95
56176;BME280;63065;51.082;17.016;2022-09-03T06:24:59;100628.19;;;17.44;37.11
56176;BME280;63065;51.082;17.016;2022-09-03T06:27:25;100631.26;;;17.29;36.54
56176;BME280;63065;51.082;17.016;2022-09-03T06:29:50;100631.71;;;17.29;36.13
56176;BME280;63065;51.082;17.016;2022-09-03T06:32:16;100639.33;;;17.61;37.17
56176;BME280;63065;51.082;17.016;2022-09-03T06:34:42;100641.87;;;18.05;37.34
56176;BME280;63065;51.082;17.016;2022-09-03T06:37:08;100645.07;;;18.04;35.78
56176;BME280;63065;51.082;17.016;2022-09-03T06:39:34;100644.77;;;18.16;35.37
56176;BME280;63065;51.082;17.016;2022-09-03T06:41:59;100647.10;;;18.26;36.33
56176;BME280;63065;51.082;17.016;2022-09-03T06:44:25;100648.82;;;18.28;36.02
56176;BME280;63065;51.082;17.016;2022-09-03T06:46:51;100648.43;;;18.24;35.30
56176;BME280;63065;51.082;17.016;2022-09-03T06:49:17;100649.50;;;17.89;36.96
56176;BME280;63065;51.082;17.016;2022-09-03T06:51:42;100650.19;;;18.44;36.25
56176;BME280;63065;51.082;17.016;2022-09-03T06:54:09;100648.47;;;18.11;36.38
56176;BME280;63065;51.082;17.016;2022-09-03T06:56:35;100645.78;;;18.75;35.97
56176;BME280;63065;51.082;17.016;2022-09-03T06:59:04;100644.92;;;17.84;35.81
56176;BME280;63065;51.082;17.016;2022-09-03T07:01:26;100645.72;;;17.85;36.26
56176;BME280;63065;51.082;17.016;2022-09-03T07:03:53;100649.48;;;18.29;37.59
56176;BME280;63065;51.082;17.016;2022-09-03T07:06:18;100650.16;;;18.30;37.17
56176;BME280;63065;51.082;17.016;2022-09-03T07:08:43;100645.67;;;18.42;36.23
56176;BME280;63065;51.082;17.016;2022-09-03T07:11:10;100649.96;;;18.54;37.13
56176;BME280;63065;51.082;17.016;2022-09-03T07:13:34;100649.98;;;18.48;36.73
56176;BME280;63065;51.082;17.016;2022-09-03T07:16:01;100649.73;;;18.52;36.73
56176;BME280;63065;51.082;17.016;2022-09-03T07:18:25;100643.21;;;18.61;36.23
56176;BME280;63065;51.082;17.016;2022-09-03T07:20:50;100642.15;;;18.68;35.91
56176;BME280;63065;51.082;17.016;2022-09-03T07:23:16;100643.38;;;18.36;36.54
56176;BME280;63065;51.082;17.016;2022-09-03T07:25:41;100646.31;;;18.83;36.40
56176;BME280;63065;51.082;17.016;2022-09-03T07:28:07;100646.29;;;18.53;36.97
56176;BME280;63065;51.082;17.016;2022-09-03T07:30:32;100646.32;;;18.69;37.17
56176;BME280;63065;51.082;17.016;2022-09-03T07:32:58;100644.98;;;19.16;36.14
56176;BME280;63065;51.082;17.016;2022-09-03T07:35:24;100646.94;;;19.08;36.31
56176;BME280;63065;51.082;17.016;2022-09-03T07:37:50;100646.49;;;18.57;35.57
56176;BME280;63065;51.082;17.016;2022-09-03T07:40:15;100644.95;;;18.92;36.33
56176;BME280;63065;51.082;17.016;2022-09-03T07:42:40;100645.31;;;19.53;36.55
56176;BME280;63065;51.082;17.016;2022-09-03T07:45:07;100646.63;;;19.46;35.69
56176;BME280;63065;51.082;17.016;2022-09-03T07:47:32;100647.58;;;19.28;35.03
56176;BME280;63065;51.082;17.016;2022-09-03T07:49:57;100648.84;;;19.26;35.60
56176;BME280;63065;51.082;17.016;2022-09-03T07:52:23;100644.59;;;19.60;36.50
56176;BME280;63065;51.082;17.016;2022-09-03T07:54:48;100642.81;;;19.60;35.95
56176;BME280;63065;51.082;17.016;2022-09-03T07:57:14;100639.81;;;19.62;35.53
56176;BME280;63065;51.082;17.016;2022-09-03T07:59:40;100642.57;;;20.01;34.67
56176;BME280;63065;51.082;17.016;2022-09-03T08:02:05;100641.94;;;19.76;35.83
56176;BME280;63065;51.082;17.016;2022-09-03T08:04:31;100642.73;;;19.98;35.80
56176;BME280;63065;51.082;17.016;2022-09-03T08:06:57;100645.07;;;20.27;35.14
56176;BME280;63065;51.082;17.016;2022-09-03T08:09:22;100648.22;;;20.15;35.37
56176;BME280;63065;51.082;17.016;2022-09-03T08:11:48;100649.26;;;19.61;35.53
56176;BME280;63065;51.082;17.016;2022-09-03T08:14:13;100646.19;;;20.17;35.88
56176;BME280;63065;51.082;17.016;2022-09-03T08:16:41;100645.75;;;20.33;35.94
56176;BME280;63065;51.082;17.016;2022-09-03T08:19:04;100643.42;;;20.38;34.93
56176;BME280;63065;51.082;17.016;2022-09-03T08:21:31;100646.33;;;20.32;35.97
56176;BME280;63065;51.082;17.016;2022-09-03T08:23:57;100646.63;;;20.80;35.25
56176;BME280;63065;51.082;17.016;2022-09-03T08:26:22;100640.15;;;20.79;34.96
56176;BME280;63065;51.082;17.016;2022-09-03T08:28:51;100635.58;;;20.89;34.45
56176;BME280;63065;51.082;17.016;2022-09-03T08:31:15;100633.35;;;21.10;34.56
56176;BME280;63065;51.082;17.016;2022-09-03T08:33:40;100627.98;;;21.45;33.99
56176;BME280;63065;51.082;17.016;2022-09-03T08:36:07;100628.60;;;21.47;33.87
56176;BME280;63065;51.082;17.016;2022-09-03T08:38:31;100626.30;;;21.76;33.86
56176;BME280;63065;51.082;17.016;2022-09-03T08:41:03;100625.86;;;21.59;33.07
56176;BME280;63065;51.082;17.016;2022-09-03T08:43:22;100622.11;;;21.17;33.10
56176;BME280;63065;51.082;17.016;2022-09-03T08:45:48;100620.24;;;21.89;33.93
56176;BME280;63065;51.082;17.016;2022-09-03T08:48:18;100621.54;;;21.76;33.62
56176;BME280;63065;51.082;17.016;2022-09-03T08:50:42;100616.17;;;22.20;33.48
56176;BME280;63065;51.082;17.016;2022-09-03T08:53:10;100620.31;;;22.05;32.40
56176;BME280;63065;51.082;17.016;2022-09-03T08:55:34;100618.50;;;22.14;32.34
56176;BME280;63065;51.082;17.016;2022-09-03T08:58:02;100617.36;;;22.10;33.11
56176;BME280;63065;51.082;17.016;2022-09-03T09:00:22;100613.86;;;22.33;32.39
56176;BME280;63065;51.082;17.016;2022-09-03T09:02:57;100617.11;;;22.17;32.41
56176;BME280;63065;51.082;17.016;2022-09-03T09:05:17;100617.60;;;22.47;32.57
56176;BME280;63065;51.082;17.016;2022-09-03T09:07:44;100618.84;;;21.63;32.16
56176;BME280;63065;51.082;17.016;2022-09-03T09:10:11;100616.08;;;22.08;32.32
56176;BME280;63065;51.082;17.016;2022-09-03T09:12:36;100615.99;;;22.50;32.31
56176;BME280;63065;51.082;17.016;2022-09-03T09:15:07;100614.53;;;22.15;32.36
56176;BME280;63065;51.082;17.016;2022-09-03T09:17:30;100612.67;;;22.52;32.36
56176;BME280;63065;51.082;17.016;2022-09-03T09:19:55;100608.90;;;22.74;31.50
56176;BME280;63065;51.082;17.016;2022-09-03T09:22:18;100609.42;;;22.37;33.04
56176;BME280;63065;51.082;17.016;2022-09-03T09:24:41;100608.17;;;21.83;31.92
56176;BME280;63065;51.082;17.016;2022-09-03T09:27:05;100608.03;;;22.66;31.95
56176;BME280;63065;51.082;17.016;2022-09-03T09:29:31;100608.47;;;22.66;32.19
56176;BME280;63065;51.082;17.016;2022-09-03T09:31:56;100602.98;;;22.60;31.25
56176;BME280;63065;51.082;17.016;2022-09-03T09:34:21;100599.01;;;22.60;31.34
56176;BME280;63065;51.082;17.016;2022-09-03T09:36:49;100595.72;;;22.98;31.63
56176;BME280;63065;51.082;17.016;2022-09-03T09:39:12;100591.39;;;22.71;31.30
56176;BME280;63065;51.082;17.016;2022-09-03T09:41:37;100594.92;;;22.65;32.27
56176;BME280;63065;51.082;17.016;2022-09-03T09:44:03;100591.89;;;22.60;32.15
56176;BME280;63065;51.082;17.016;2022-09-03T09:46:34;100590.75;;;23.19;32.30
56176;BME280;63065;51.082;17.016;2022-09-03T09:48:57;100588.42;;;23.14;32.07
56176;BME280;63065;51.082;17.016;2022-09-03T09:51:22;100585.50;;;22.83;30.11
56176;BME280;63065;51.082;17.016;2022-09-03T09:53:46;100587.83;;;23.20;31.36
56176;BME280;63065;51.082;17.016;2022-09-03T09:56:19;100591.67;;;22.95;31.22
56176;BME280;63065;51.082;17.016;2022-09-03T09:58:37;100585.04;;;22.93;31.49
56176;BME280;63065;51.082;17.016;2022-09-03T10:01:11;100587.30;;;22.97;31.56
56176;BME280;63065;51.082;17.016;2022-09-03T10:03:31;100588.25;;;22.93;31.40
56176;BME280;63065;51.082;17.016;2022-09-03T10:06:02;100583.22;;;23.31;30.63
56176;BME280;63065;51.082;17.016;2022-09-03T10:08:20;100580.41;;;23.23;30.24
56176;BME280;63065;51.082;17.016;2022-09-03T10:10:48;100576.19;;;23.30;30.49
56176;BME280;63065;51.082;17.016;2022-09-03T10:13:15;100571.75;;;23.21;31.36
56176;BME280;63065;51.082;17.016;2022-09-03T10:15:43;100568.71;;;23.45;31.12
56176;BME280;63065;51.082;17.016;2022-09-03T10:18:09;100566.63;;;23.61;31.03
56176;BME280;63065;51.082;17.016;2022-09-03T10:20:35;100562.68;;;23.16;31.35
56176;BME280;63065;51.082;17.016;2022-09-03T10:22:56;100561.90;;;23.69;30.29
56176;BME280;63065;51.082;17.016;2022-09-03T10:25:20;100558.47;;;23.38;30.09
56176;BME280;63065;51.082;17.016;2022-09-03T10:27:45;100553.22;;;23.54;29.53
56176;BME280;63065;51.082;17.016;2022-09-03T10:30:11;100568.27;;;24.07;30.74
56176;BME280;63065;51.082;17.016;2022-09-03T10:32:43;100564.55;;;23.54;29.37
56176;BME280;63065;51.082;17.016;2022-09-03T10:35:08;100559.24;;;23.85;29.35
56176;BME280;63065;51.082;17.016;2022-09-03T10:37:36;100552.46;;;24.01;29.70
56176;BME280;63065;51.082;17.016;2022-09-03T10:40:10;100550.59;;;24.13;29.88
56176;BME280;63065;51.082;17.016;2022-09-03T10:42:31;100549.84;;;24.50;28.75
56176;BME280;63065;51.082;17.016;2022-09-03T10:44:55;100550.53;;;24.70;28.36
56176;BME280;63065;51.082;17.016;2022-09-03T10:47:23;100554.44;;;24.55;28.40
56176;BME280;63065;51.082;17.016;2022-09-03T10:49:46;100555.80;;;24.29;28.21
56176;BME280;63065;51.082;17.016;2022-09-03T10:52:08;100550.39;;;24.67;29.29
56176;BME280;63065;51.082;17.016;2022-09-03T10:54:35;100546.60;;;24.58;29.17
56176;BME280;63065;51.082;17.016;2022-09-03T10:56:59;100544.01;;;24.90;29.06
56176;BME280;63065;51.082;17.016;2022-09-03T10:59:26;100540.17;;;24.56;29.65
56176;BME280;63065;51.082;17.016;2022-09-03T11:01:50;100533.58;;;25.15;29.12
56176;BME280;63065;51.082;17.016;2022-09-03T11:04:21;100534.73;;;25.20;29.12
56176;BME280;63065;51.082;17.016;2022-09-03T11:06:42;100527.97;;;25.46;29.28
56176;BME280;63065;51.082;17.016;2022-09-03T11:09:10;100526.62;;;25.58;28.62
56176;BME280;63065;51.082;17.016;2022-09-03T11:11:31;100525.83;;;25.56;28.70
56176;BME280;63065;51.082;17.016;2022-09-03T11:13:57;100518.68;;;25.95;27.75
56176;BME280;63065;51.082;17.016;2022-09-03T11:16:22;100520.41;;;25.87;27.85
56176;BME280;63065;51.082;17.016;2022-09-03T11:18:48;100513.28;;;26.16;28.43
56176;BME280;63065;51.082;17.016;2022-09-03T11:21:12;100512.26;;;26.00;27.32
56176;BME280;63065;51.082;17.016;2022-09-03T11:23:41;100508.31;;;25.84;28.03
56176;BME280;63065;51.082;17.016;2022-09-03T11:26:06;100513.12;;;25.22;27.41
56176;BME280;63065;51.082;17.016;2022-09-03T11:28:34;100518.40;;;24.77;27.98
56176;BME280;63065;51.082;17.016;2022-09-03T11:31:04;100512.84;;;25.17;29.04
56176;BME280;63065;51.082;17.016;2022-09-03T11:33:20;100514.69;;;24.59;28.77
56176;BME280;63065;51.082;17.016;2022-09-03T11:35:44;100512.03;;;24.86;28.75
56176;BME280;63065;51.082;17.016;2022-09-03T11:38:19;100499.63;;;24.70;27.28
56176;BME280;63065;51.082;17.016;2022-09-03T11:40:37;100498.77;;;25.03;28.22
56176;BME280;63065;51.082;17.016;2022-09-03T11:43:06;100495.77;;;25.75;28.95
56176;BME280;63065;51.082;17.016;2022-09-03T11:45:33;100490.87;;;25.78;28.13
56176;BME280;63065;51.082;17.016;2022-09-03T11:47:53;100492.37;;;26.33;26.91
56176;BME280;63065;51.082;17.016;2022-09-03T11:50:22;100493.63;;;26.48;27.28
56176;BME280;63065;51.082;17.016;2022-09-03T11:52:43;100492.85;;;26.61;25.75
56176;BME280;63065;51.082;17.016;2022-09-03T11:55:09;100498.33;;;26.18;27.59
56176;BME280;63065;51.082;17.016;2022-09-03T11:57:41;100496.67;;;25.97;27.64
56176;BME280;63065;51.082;17.016;2022-09-03T12:00:07;100497.50;;;25.39;27.32
56176;BME280;63065;51.082;17.016;2022-09-03T12:02:29;100499.62;;;25.60;29.33
56176;BME280;63065;51.082;17.016;2022-09-03T12:07:28;100497.76;;;25.49;27.76
56176;BME280;63065;51.082;17.016;2022-09-03T12:09:50;100494.02;;;25.70;27.31
56176;BME280;63065;51.082;17.016;2022-09-03T12:12:21;100490.31;;;24.89;28.90
56176;BME280;63065;51.082;17.016;2022-09-03T12:14:39;100493.38;;;24.31;28.85
56176;BME280;63065;51.082;17.016;2022-09-03T12:17:10;100486.51;;;24.93;28.47
56176;BME280;63065;51.082;17.016;2022-09-03T12:19:33;100484.54;;;24.49;29.51
56176;BME280;63065;51.082;17.016;2022-09-03T12:21:51;100488.34;;;24.29;30.91
56176;BME280;63065;51.082;17.016;2022-09-03T12:24:18;100489.18;;;24.06;31.35
56176;BME280;63065;51.082;17.016;2022-09-03T12:26:42;100485.97;;;23.98;30.77
56176;BME280;63065;51.082;17.016;2022-09-03T12:31:42;100485.69;;;23.59;30.99
56176;BME280;63065;51.082;17.016;2022-09-03T12:34:02;100482.59;;;24.63;30.20
56176;BME280;63065;51.082;17.016;2022-09-03T12:36:26;100479.65;;;24.27;30.22
56176;BME280;63065;51.082;17.016;2022-09-03T12:38:50;100479.18;;;24.44;29.90
56176;BME280;63065;51.082;17.016;2022-09-03T12:41:21;100481.79;;;24.47;30.44